Terminal Aerodrome Forecast
Issued by NWS

Home | Current Version | Previous Version | Text Only | Print | Product List | Glossary On
Versions: 1 2 3 4 5 6 7 8 9 10 11 12 13 14 15 16 17 18 19 20 21 22 23 24 25 26 27 28 29 30 31 32 33 34 35
000
FTUS42 KCAE 212340
TAFDNL
TAF
KDNL 212340Z 2200/2224 17007KT P6SM FEW050 BKN150
     FM220200 VRB04KT P6SM SCT100
     FM221000 VRB03KT P6SM BKN015
     FM221300 16004KT P6SM VCSH SCT020
     FM221700 18007KT P6SM VCSH SCT050 BKN150=

USA.gov is the U.S. government's official web portal to all federal, state and local government web resources and services.